createdAt,value
2023-05-23T00:02:13.654Z,16.82
2023-05-23T00:04:41.361Z,16.83
2023-05-23T00:07:08.975Z,16.87
2023-05-23T00:09:37.248Z,16.90
2023-05-23T00:12:05.091Z,16.84
2023-05-23T00:14:34.045Z,16.81
2023-05-23T00:17:01.782Z,16.83
2023-05-23T00:19:29.816Z,16.78
2023-05-23T00:21:58.676Z,16.79
2023-05-23T00:24:27.251Z,16.80
2023-05-23T00:26:54.476Z,16.79
2023-05-23T00:29:21.786Z,16.79
2023-05-23T00:31:49.289Z,16.73
2023-05-23T00:34:18.079Z,16.73
2023-05-23T00:36:48.084Z,16.75
2023-05-23T00:39:20.263Z,16.73
2023-05-23T00:41:52.183Z,16.80
2023-05-23T00:44:22.263Z,16.79
2023-05-23T00:46:57.885Z,16.75
2023-05-23T00:49:28.256Z,16.78
2023-05-23T00:51:56.079Z,16.81
2023-05-23T00:54:33.942Z,16.77
2023-05-23T00:57:01.711Z,16.75
2023-05-23T00:59:31.277Z,16.76
2023-05-23T01:02:00.942Z,16.72
2023-05-23T01:04:29.111Z,16.77
2023-05-23T01:06:57.151Z,16.73
2023-05-23T01:09:26.592Z,16.74
2023-05-23T01:12:25.155Z,16.71
2023-05-23T01:15:11.570Z,16.72
2023-05-23T01:17:55.175Z,16.73
2023-05-23T01:20:30.238Z,16.74
2023-05-23T01:23:01.139Z,16.76
2023-05-23T01:25:54.062Z,16.74
2023-05-23T01:28:27.310Z,16.75
2023-05-23T01:30:59.171Z,16.66
2023-05-23T01:33:29.145Z,16.69
2023-05-23T01:36:01.079Z,16.59
2023-05-23T01:38:28.474Z,16.60
2023-05-23T01:40:55.753Z,16.63
2023-05-23T01:43:25.089Z,16.71
2023-05-23T01:45:56.454Z,16.69
2023-05-23T01:48:26.267Z,16.66
2023-05-23T01:50:54.488Z,16.63
2023-05-23T01:53:23.338Z,16.68
2023-05-23T01:55:52.041Z,16.65
2023-05-23T01:58:22.309Z,16.57
2023-05-23T02:00:49.853Z,16.60
2023-05-23T02:03:17.436Z,16.53
2023-05-23T02:05:45.849Z,16.47
2023-05-23T02:08:13.330Z,16.45
2023-05-23T02:10:41.682Z,16.40
2023-05-23T02:13:09.092Z,16.37
2023-05-23T02:15:37.514Z,16.35
2023-05-23T02:18:06.716Z,16.27
2023-05-23T02:20:35.371Z,16.27
2023-05-23T02:23:04.317Z,16.19
2023-05-23T02:25:31.998Z,16.27
2023-05-23T02:27:59.621Z,16.26
2023-05-23T02:30:26.940Z,16.29
2023-05-23T02:32:54.709Z,16.29
2023-05-23T02:35:22.689Z,16.31
2023-05-23T02:37:50.059Z,16.26
2023-05-23T02:40:18.034Z,16.12
2023-05-23T02:42:45.420Z,16.05
2023-05-23T02:45:12.732Z,16.06
2023-05-23T02:47:40.170Z,16.12
2023-05-23T02:50:09.854Z,16.12
2023-05-23T02:52:37.527Z,16.02
2023-05-23T02:55:05.558Z,15.91
2023-05-23T02:57:39.172Z,15.89
2023-05-23T03:00:07.236Z,15.88
2023-05-23T03:02:35.624Z,15.84
2023-05-23T03:05:04.164Z,15.90
2023-05-23T03:07:34.089Z,15.97
2023-05-23T03:10:01.569Z,16.06
2023-05-23T03:12:29.566Z,16.11
2023-05-23T03:14:57.093Z,16.18
2023-05-23T03:17:26.256Z,16.23
2023-05-23T03:19:53.902Z,16.26
2023-05-23T03:22:21.408Z,16.20
2023-05-23T03:24:48.971Z,16.05
2023-05-23T03:27:16.460Z,15.95
2023-05-23T03:29:44.053Z,15.96
2023-05-23T03:32:11.689Z,16.00
2023-05-23T03:34:40.262Z,15.94
2023-05-23T03:37:07.579Z,15.90
2023-05-23T03:39:35.849Z,15.77
2023-05-23T03:42:04.340Z,15.70
2023-05-23T03:44:32.077Z,15.69
2023-05-23T03:46:59.629Z,15.73
2023-05-23T03:49:27.101Z,15.82
2023-05-23T03:51:54.655Z,15.90
2023-05-23T03:54:21.974Z,15.88
2023-05-23T03:56:49.239Z,15.94
2023-05-23T03:59:18.176Z,15.99
2023-05-23T04:01:46.189Z,15.98
2023-05-23T04:04:13.663Z,16.01
2023-05-23T04:06:41.758Z,16.05
2023-05-23T04:09:09.436Z,16.11
2023-05-23T04:11:41.590Z,16.21
2023-05-23T04:14:09.195Z,16.30
2023-05-23T04:16:38.325Z,16.30
2023-05-23T04:19:06.406Z,16.32
2023-05-23T04:21:36.624Z,16.48
2023-05-23T04:24:08.492Z,16.54
2023-05-23T04:26:39.683Z,16.53
2023-05-23T04:29:07.479Z,16.49
2023-05-23T04:31:35.587Z,16.52
2023-05-23T04:34:03.952Z,16.50
2023-05-23T04:36:38.234Z,16.51
2023-05-23T04:39:06.559Z,16.44
2023-05-23T04:41:40.254Z,16.50
2023-05-23T04:44:34.272Z,16.46
2023-05-23T04:47:15.936Z,16.65
2023-05-23T04:49:58.076Z,16.74
2023-05-23T04:52:27.612Z,16.75
2023-05-23T04:54:56.259Z,16.74
2023-05-23T04:57:23.878Z,16.74
2023-05-23T04:59:51.528Z,16.65
2023-05-23T05:02:19.486Z,16.63
2023-05-23T05:04:47.493Z,16.67
2023-05-23T05:07:16.266Z,16.59
2023-05-23T05:09:43.808Z,16.61
2023-05-23T05:12:12.240Z,16.60
2023-05-23T05:14:40.666Z,16.55
2023-05-23T05:17:08.486Z,16.61
2023-05-23T05:19:48.943Z,16.68
2023-05-23T05:22:18.507Z,16.70
2023-05-23T05:24:46.180Z,16.77
2023-05-23T05:27:13.544Z,16.83
2023-05-23T05:29:40.914Z,16.82
2023-05-23T05:32:09.272Z,16.76
2023-05-23T05:34:38.131Z,16.71
2023-05-23T05:37:06.650Z,16.77
2023-05-23T05:39:34.247Z,16.68
2023-05-23T05:42:03.799Z,16.71
2023-05-23T05:44:31.561Z,16.63
2023-05-23T05:46:59.094Z,16.58
2023-05-23T05:49:26.382Z,16.59
2023-05-23T05:51:53.733Z,16.59
2023-05-23T05:54:21.277Z,16.60
2023-05-23T05:56:48.607Z,16.66
2023-05-23T05:59:17.107Z,16.77
2023-05-23T06:01:45.739Z,16.84
2023-05-23T06:04:14.179Z,16.75
2023-05-23T06:06:42.185Z,16.80
2023-05-23T06:09:11.032Z,16.88
2023-05-23T06:11:41.129Z,16.92
2023-05-23T06:14:09.627Z,17.03
2023-05-23T06:16:40.791Z,17.05
2023-05-23T06:19:08.673Z,17.04
2023-05-23T06:21:37.234Z,17.05
2023-05-23T06:24:06.397Z,17.12
2023-05-23T06:26:33.991Z,17.18
2023-05-23T06:29:01.387Z,17.20
2023-05-23T06:31:28.706Z,17.24
2023-05-23T06:33:56.173Z,17.23
2023-05-23T06:36:23.965Z,17.16
2023-05-23T06:38:51.279Z,17.04
2023-05-23T06:41:18.695Z,16.95
2023-05-23T06:43:46.142Z,17.01
2023-05-23T06:46:15.712Z,17.07
2023-05-23T06:48:43.691Z,17.14
2023-05-23T06:51:11.521Z,17.10
2023-05-23T06:53:39.069Z,17.20
2023-05-23T06:56:06.812Z,17.30
2023-05-23T06:58:41.514Z,17.33
2023-05-23T07:01:10.890Z,17.23
2023-05-23T07:03:45.872Z,17.28
2023-05-23T07:06:13.740Z,17.31
2023-05-23T07:08:41.708Z,17.32
2023-05-23T07:11:09.783Z,17.38
2023-05-23T07:13:41.383Z,17.47
2023-05-23T07:16:13.335Z,17.42
2023-05-23T07:18:51.541Z,17.43
2023-05-23T07:21:19.020Z,17.35
2023-05-23T07:23:47.348Z,17.34
2023-05-23T07:26:15.343Z,17.26
2023-05-23T07:28:53.908Z,17.18
2023-05-23T07:31:21.547Z,17.12
2023-05-23T07:33:50.214Z,17.03
2023-05-23T07:36:29.662Z,17.09
2023-05-23T07:38:57.134Z,17.11
2023-05-23T07:41:25.434Z,16.94
2023-05-23T07:43:52.904Z,16.88
2023-05-23T07:46:20.326Z,16.86
2023-05-23T07:48:47.897Z,16.80
2023-05-23T07:51:15.836Z,16.76
2023-05-23T07:53:43.368Z,16.63
2023-05-23T07:56:12.972Z,16.52
2023-05-23T07:58:42.367Z,16.52
2023-05-23T08:01:10.190Z,16.53
2023-05-23T08:04:07.244Z,16.53
2023-05-23T08:06:52.101Z,16.56
2023-05-23T08:09:40.388Z,16.56
2023-05-23T08:12:10.109Z,16.62
2023-05-23T08:14:50.433Z,16.70
2023-05-23T08:17:45.658Z,16.80
2023-05-23T08:20:13.158Z,16.94
2023-05-23T08:22:41.205Z,17.05
2023-05-23T08:25:10.105Z,17.04
2023-05-23T08:27:40.515Z,17.02
2023-05-23T08:30:37.526Z,17.12
2023-05-23T08:33:07.282Z,17.18
2023-05-23T08:35:37.610Z,17.38
2023-05-23T08:38:09.917Z,17.55
2023-05-23T08:40:52.232Z,17.67
2023-05-23T08:43:21.190Z,17.67
2023-05-23T08:45:51.599Z,17.46
2023-05-23T08:48:20.828Z,17.51
2023-05-23T08:50:51.335Z,17.53
2023-05-23T08:53:23.078Z,17.35
2023-05-23T08:56:02.812Z,17.26
2023-05-23T08:58:44.685Z,17.13
2023-05-23T09:01:14.008Z,17.21
2023-05-23T09:03:43.290Z,17.22
2023-05-23T09:06:37.542Z,17.26
2023-05-23T09:09:06.587Z,17.19
2023-05-23T09:11:36.331Z,17.25
2023-05-23T09:14:08.346Z,17.32
2023-05-23T09:16:37.297Z,17.45
2023-05-23T09:19:15.603Z,17.46
2023-05-23T09:21:50.857Z,17.64
2023-05-23T09:24:41.621Z,17.89
2023-05-23T09:27:10.717Z,18.31
2023-05-23T09:29:42.109Z,18.54
2023-05-23T09:32:14.896Z,18.55
2023-05-23T09:35:00.914Z,18.59
2023-05-23T09:37:46.154Z,18.53
2023-05-23T09:40:15.048Z,18.42
2023-05-23T09:42:49.022Z,18.26
2023-05-23T09:45:17.330Z,18.18
2023-05-23T09:47:52.363Z,18.04
2023-05-23T09:50:21.131Z,17.91
2023-05-23T09:52:49.555Z,17.84
2023-05-23T09:55:17.533Z,17.88
2023-05-23T09:57:46.024Z,18.01
2023-05-23T10:03:17.873Z,18.36
2023-05-23T10:05:47.822Z,18.41
2023-05-23T10:08:30.163Z,18.36
2023-05-23T10:10:57.702Z,18.24
2023-05-23T10:13:27.234Z,18.11
2023-05-23T10:16:07.233Z,18.19
2023-05-23T10:18:49.078Z,18.26
2023-05-23T10:21:21.035Z,18.34
2023-05-23T10:23:49.102Z,18.46
2023-05-23T10:26:18.568Z,18.42
2023-05-23T10:28:49.941Z,18.56
2023-05-23T10:31:18.045Z,18.67
2023-05-23T10:33:53.743Z,18.61
2023-05-23T10:36:34.535Z,18.50
2023-05-23T10:39:13.429Z,18.58
2023-05-23T10:41:51.786Z,18.74
2023-05-23T10:44:30.554Z,18.95
2023-05-23T10:47:02.629Z,19.20
2023-05-23T10:49:41.629Z,19.58
2023-05-23T10:52:14.035Z,19.49
2023-05-23T10:54:43.380Z,19.65
2023-05-23T10:57:13.004Z,19.66
2023-05-23T10:59:40.817Z,19.55
2023-05-23T11:02:20.615Z,19.45
2023-05-23T11:05:23.880Z,19.24
2023-05-23T11:08:16.248Z,19.13
2023-05-23T11:11:01.054Z,19.54
2023-05-23T11:13:53.502Z,19.95
2023-05-23T11:16:46.755Z,20.17
2023-05-23T11:19:21.047Z,20.32
2023-05-23T11:22:03.709Z,20.16
2023-05-23T11:25:00.181Z,19.88
2023-05-23T11:27:36.179Z,19.85
2023-05-23T11:30:07.629Z,19.86
2023-05-23T11:32:36.329Z,19.72
2023-05-23T11:35:09.361Z,19.70
2023-05-23T11:37:39.052Z,19.51
2023-05-23T11:40:35.346Z,19.49
2023-05-23T11:43:05.304Z,19.60
2023-05-23T11:45:34.370Z,19.64
2023-05-23T11:48:09.680Z,19.92
2023-05-23T11:50:54.320Z,19.96
2023-05-23T11:53:25.610Z,19.94
2023-05-23T11:55:58.967Z,19.93
2023-05-23T11:58:29.375Z,19.96
2023-05-23T12:01:08.646Z,20.01
2023-05-23T12:03:57.668Z,19.87
2023-05-23T12:06:25.410Z,19.76
2023-05-23T12:08:54.007Z,19.82
2023-05-23T12:11:23.812Z,19.89
2023-05-23T12:13:53.573Z,20.10
2023-05-23T12:16:21.392Z,20.32
2023-05-23T12:18:48.855Z,20.33
2023-05-23T12:21:16.240Z,20.42
2023-05-23T12:23:43.679Z,20.66
2023-05-23T12:26:10.948Z,20.88
2023-05-23T12:28:40.477Z,21.22
2023-05-23T12:31:22.153Z,21.52
2023-05-23T12:33:52.940Z,21.65
2023-05-23T12:36:29.729Z,21.39
2023-05-23T12:39:09.172Z,21.29
2023-05-23T12:41:37.457Z,21.55
2023-05-23T12:44:05.361Z,21.80
2023-05-23T12:46:33.796Z,21.91
2023-05-23T12:49:01.356Z,22.10
2023-05-23T12:51:28.839Z,22.32
2023-05-23T12:53:57.339Z,22.26
2023-05-23T12:56:24.645Z,21.85
2023-05-23T12:58:53.938Z,21.66
2023-05-23T13:01:21.811Z,21.99
2023-05-23T13:03:49.369Z,21.87
2023-05-23T13:06:18.330Z,21.77
2023-05-23T13:08:45.864Z,21.77
2023-05-23T13:11:13.836Z,21.84
2023-05-23T13:13:42.132Z,21.81
2023-05-23T13:16:09.835Z,22.11
2023-05-23T13:18:37.358Z,22.21
2023-05-23T13:21:05.087Z,22.24
2023-05-23T13:23:32.783Z,22.00
2023-05-23T13:26:00.294Z,21.84
2023-05-23T13:28:27.686Z,22.26
2023-05-23T13:30:55.257Z,22.20
2023-05-23T13:33:23.692Z,22.56
2023-05-23T13:35:51.667Z,22.78
2023-05-23T13:38:20.509Z,23.02
2023-05-23T13:40:49.719Z,22.65
2023-05-23T13:43:18.962Z,22.63
2023-05-23T13:45:49.084Z,22.69
2023-05-23T13:48:16.783Z,22.92
2023-05-23T13:50:45.221Z,22.94
2023-05-23T13:53:16.823Z,23.11
2023-05-23T13:55:47.589Z,23.49
2023-05-23T13:58:15.040Z,23.20
2023-05-23T14:00:43.401Z,23.09
2023-05-23T14:03:12.025Z,23.12
2023-05-23T14:05:39.651Z,23.47
2023-05-23T14:08:07.072Z,23.41
2023-05-23T14:10:35.832Z,23.04
2023-05-23T14:13:03.343Z,22.93
2023-05-23T14:15:32.944Z,22.62
2023-05-23T14:18:01.747Z,22.86
2023-05-23T14:20:30.066Z,22.66
2023-05-23T14:22:57.663Z,22.61
2023-05-23T14:25:25.057Z,22.74
2023-05-23T14:27:52.323Z,22.88
2023-05-23T14:30:20.127Z,23.11
2023-05-23T14:32:47.602Z,22.80
2023-05-23T14:35:15.054Z,23.09
2023-05-23T14:37:42.598Z,23.11
2023-05-23T14:40:10.501Z,22.95
2023-05-23T14:42:38.055Z,22.62
2023-05-23T14:45:06.417Z,22.61
2023-05-23T14:47:35.570Z,22.28
2023-05-23T14:50:03.720Z,22.03
2023-05-23T14:52:31.480Z,21.89
2023-05-23T14:54:58.763Z,22.19
2023-05-23T14:57:26.882Z,23.29
2023-05-23T14:59:54.122Z,23.94
2023-05-23T15:02:22.548Z,24.33
2023-05-23T15:04:49.910Z,24.37
2023-05-23T15:07:18.419Z,25.18
2023-05-23T15:09:47.818Z,25.10
2023-05-23T15:12:17.862Z,25.24
2023-05-23T15:14:45.406Z,25.97
2023-05-23T15:17:13.578Z,26.21
2023-05-23T15:19:43.253Z,26.69
2023-05-23T15:22:18.772Z,25.69
2023-05-23T15:25:03.112Z,24.47
2023-05-23T15:27:30.820Z,23.36
2023-05-23T15:29:58.292Z,22.56
2023-05-23T15:32:25.993Z,22.18
2023-05-23T15:34:53.861Z,22.13
2023-05-23T15:37:21.209Z,22.39
2023-05-23T15:39:49.490Z,22.55
2023-05-23T15:42:17.048Z,22.92
2023-05-23T15:44:44.417Z,23.16
2023-05-23T15:47:11.806Z,22.65
2023-05-23T15:49:39.297Z,23.00
2023-05-23T15:52:06.962Z,22.95
2023-05-23T15:54:34.719Z,22.67
2023-05-23T15:57:01.973Z,22.33
2023-05-23T15:59:31.445Z,21.73
2023-05-23T16:01:59.114Z,21.71
2023-05-23T16:04:26.658Z,21.54
2023-05-23T16:06:54.114Z,20.92
2023-05-23T16:09:21.456Z,20.62
2023-05-23T16:11:48.951Z,20.50
2023-05-23T16:14:16.375Z,20.41
2023-05-23T16:16:43.911Z,20.38
2023-05-23T16:19:11.516Z,20.27
2023-05-23T16:21:39.218Z,20.23
2023-05-23T16:24:07.053Z,20.27
2023-05-23T16:26:34.759Z,20.21
2023-05-23T16:29:02.508Z,20.15
2023-05-23T16:31:30.352Z,20.14
2023-05-23T16:33:58.763Z,20.10
2023-05-23T16:36:26.137Z,20.07
2023-05-23T16:38:55.563Z,19.94
2023-05-23T16:41:23.261Z,19.85
2023-05-23T16:43:51.267Z,19.82
2023-05-23T16:46:20.660Z,19.74
2023-05-23T16:48:48.709Z,19.73
2023-05-23T16:51:16.348Z,19.64
2023-05-23T16:53:43.652Z,19.70
2023-05-23T16:56:11.041Z,19.75
2023-05-23T16:58:38.958Z,19.77
2023-05-23T17:01:07.765Z,19.71
2023-05-23T17:03:35.339Z,19.68
2023-05-23T17:06:02.931Z,19.68
2023-05-23T17:08:30.727Z,19.66
2023-05-23T17:10:58.089Z,19.70
2023-05-23T17:13:26.138Z,19.62
2023-05-23T17:15:53.623Z,19.56
2023-05-23T17:18:21.112Z,19.41
2023-05-23T17:20:48.412Z,19.37
2023-05-23T17:23:16.217Z,19.41
2023-05-23T17:25:43.732Z,19.40
2023-05-23T17:28:12.119Z,19.45
2023-05-23T17:30:40.211Z,19.34
2023-05-23T17:33:08.352Z,19.34
2023-05-23T17:35:35.747Z,19.38
2023-05-23T17:38:03.308Z,19.39
2023-05-23T17:40:31.237Z,19.40
2023-05-23T17:42:59.050Z,19.38
2023-05-23T17:45:26.411Z,19.36
2023-05-23T17:47:53.949Z,19.35
2023-05-23T17:50:21.558Z,19.35
2023-05-23T17:52:49.498Z,19.30
2023-05-23T17:55:16.804Z,19.26
2023-05-23T17:57:45.107Z,19.22
2023-05-23T18:00:12.923Z,19.21
2023-05-23T18:02:40.584Z,19.20
2023-05-23T18:05:09.472Z,19.16
2023-05-23T18:07:36.877Z,19.11
2023-05-23T18:10:05.470Z,19.16
2023-05-23T18:12:33.060Z,19.11
2023-05-23T18:15:00.417Z,19.09
2023-05-23T18:17:28.216Z,19.11
2023-05-23T18:19:55.680Z,19.08
2023-05-23T18:22:23.159Z,19.13
2023-05-23T18:24:50.774Z,19.11
2023-05-23T18:27:18.093Z,19.13
2023-05-23T18:29:45.485Z,19.11
2023-05-23T18:32:14.625Z,19.09
2023-05-23T18:34:42.342Z,19.16
2023-05-23T18:37:09.990Z,19.18
2023-05-23T18:39:37.455Z,19.20
2023-05-23T18:42:04.842Z,19.20
2023-05-23T18:44:32.505Z,19.17
2023-05-23T18:46:59.886Z,19.17
2023-05-23T18:49:27.592Z,19.16
2023-05-23T18:51:58.477Z,19.12
2023-05-23T18:54:26.035Z,19.15
2023-05-23T18:56:53.283Z,19.18
2023-05-23T18:59:20.986Z,19.12
2023-05-23T19:01:48.366Z,19.18
2023-05-23T19:04:15.891Z,19.17
2023-05-23T19:06:45.790Z,19.19
2023-05-23T19:09:13.383Z,19.19
2023-05-23T19:11:40.722Z,19.17
2023-05-23T19:14:08.416Z,19.08
2023-05-23T19:16:36.342Z,19.05
2023-05-23T19:19:04.108Z,19.00
2023-05-23T19:21:32.020Z,18.91
2023-05-23T19:23:59.669Z,18.92
2023-05-23T19:26:27.066Z,18.91
2023-05-23T19:28:56.915Z,18.89
2023-05-23T19:31:24.582Z,18.85
2023-05-23T19:33:52.273Z,18.84
2023-05-23T19:36:19.700Z,18.84
2023-05-23T19:38:47.244Z,18.83
2023-05-23T19:41:14.716Z,18.81
2023-05-23T19:43:42.244Z,18.85
2023-05-23T19:46:09.688Z,18.82
2023-05-23T19:48:37.177Z,18.79
2023-05-23T19:51:04.632Z,18.77
2023-05-23T19:53:31.926Z,18.75
2023-05-23T19:56:02.236Z,18.62
2023-05-23T19:58:32.412Z,18.58
2023-05-23T20:00:59.990Z,18.65
2023-05-23T20:03:27.303Z,18.51
2023-05-23T20:05:54.815Z,18.54
2023-05-23T20:08:22.198Z,18.55
2023-05-23T20:10:49.585Z,18.54
2023-05-23T20:13:17.078Z,18.46
2023-05-23T20:15:44.657Z,18.52
2023-05-23T20:18:12.388Z,18.51
2023-05-23T20:20:40.415Z,18.50
2023-05-23T20:23:09.057Z,18.52
2023-05-23T20:25:36.519Z,18.53
2023-05-23T20:28:04.153Z,18.55
2023-05-23T20:30:32.193Z,18.53
2023-05-23T20:32:59.611Z,18.50
2023-05-23T20:35:27.164Z,18.46
2023-05-23T20:37:54.578Z,18.41
2023-05-23T20:40:22.876Z,18.39
2023-05-23T20:42:50.252Z,18.29
2023-05-23T20:45:17.602Z,18.24
2023-05-23T20:47:46.484Z,18.18
2023-05-23T20:50:14.805Z,18.09
2023-05-23T20:52:43.208Z,18.05
2023-05-23T20:55:13.129Z,18.08
2023-05-23T20:57:40.472Z,18.09
2023-05-23T21:00:14.454Z,18.08
2023-05-23T21:02:42.966Z,18.11
2023-05-23T21:05:12.317Z,18.18
2023-05-23T21:07:39.874Z,18.16
2023-05-23T21:10:07.755Z,18.16
2023-05-23T21:12:35.303Z,18.08
2023-05-23T21:15:03.338Z,18.10
2023-05-23T21:17:30.857Z,18.13
2023-05-23T21:19:58.226Z,18.08
2023-05-23T21:22:25.528Z,17.97
2023-05-23T21:24:52.988Z,17.91
2023-05-23T21:27:20.354Z,18.04
2023-05-23T21:29:47.816Z,17.99
2023-05-23T21:32:15.296Z,18.04
2023-05-23T21:34:42.652Z,17.97
2023-05-23T21:37:10.118Z,17.96
2023-05-23T21:39:50.803Z,17.98
2023-05-23T21:42:20.663Z,18.01
2023-05-23T21:44:48.358Z,18.06
2023-05-23T21:47:15.750Z,18.10
2023-05-23T21:49:43.287Z,18.16
2023-05-23T21:52:10.754Z,18.14
2023-05-23T21:54:38.447Z,18.02
2023-05-23T21:57:06.198Z,17.98
2023-05-23T21:59:33.908Z,17.96
2023-05-23T22:02:01.425Z,17.87
2023-05-23T22:04:29.051Z,17.87
2023-05-23T22:06:56.991Z,17.92
2023-05-23T22:09:24.435Z,17.97
2023-05-23T22:11:52.398Z,18.06
2023-05-23T22:14:19.949Z,18.04
2023-05-23T22:16:50.151Z,18.03
2023-05-23T22:19:21.171Z,18.05
2023-05-23T22:21:48.703Z,18.05
2023-05-23T22:24:16.466Z,17.95
2023-05-23T22:26:44.001Z,17.88
2023-05-23T22:29:11.588Z,17.90
2023-05-23T22:31:39.615Z,17.83
2023-05-23T22:34:07.173Z,17.82
2023-05-23T22:36:34.524Z,17.83
2023-05-23T22:39:02.596Z,17.84
2023-05-23T22:41:30.191Z,17.85
2023-05-23T22:43:57.681Z,17.84
2023-05-23T23:07:58.755Z,17.82
2023-05-23T23:10:26.436Z,17.80
2023-05-23T23:12:54.748Z,17.77
2023-05-23T23:15:24.605Z,17.81
2023-05-23T23:17:52.711Z,17.79
2023-05-23T23:20:22.589Z,17.76
2023-05-23T23:22:50.342Z,17.80
2023-05-23T23:25:19.108Z,17.77
2023-05-23T23:27:46.752Z,17.81
2023-05-23T23:30:14.454Z,17.85
2023-05-23T23:32:42.861Z,17.85
2023-05-23T23:35:10.304Z,17.84
2023-05-23T23:37:37.824Z,17.79
2023-05-23T23:40:06.036Z,17.84
2023-05-23T23:42:33.904Z,17.85
2023-05-23T23:45:01.629Z,17.77
2023-05-23T23:47:29.241Z,17.75
2023-05-23T23:49:56.643Z,17.70
2023-05-23T23:52:24.124Z,17.74
2023-05-23T23:54:51.731Z,17.69
2023-05-23T23:57:19.270Z,17.61
2023-05-23T23:59:47.314Z,17.63
